sensor_id;sensor_type;location;lat;lon;timestamp;P1;durP1;ratioP1;P2;durP2;ratioP2
4812;SDS011;2420;51.202;8.698;2023-03-04T00:01:13;17.08;;;9.80;;
4812;SDS011;2420;51.202;8.698;2023-03-04T00:03:39;17.13;;;10.00;;
4812;SDS011;2420;51.202;8.698;2023-03-04T00:06:05;16.33;;;9.63;;
4812;SDS011;2420;51.202;8.698;2023-03-04T00:08:31;18.60;;;9.88;;
4812;SDS011;2420;51.202;8.698;2023-03-04T00:10:56;16.88;;;9.93;;
4812;SDS011;2420;51.202;8.698;2023-03-04T00:13:22;14.68;;;9.48;;
4812;SDS011;2420;51.202;8.698;2023-03-04T00:15:49;19.38;;;10.50;;
4812;SDS011;2420;51.202;8.698;2023-03-04T00:18:14;19.63;;;10.20;;
4812;SDS011;2420;51.202;8.698;2023-03-04T00:20:40;18.10;;;10.10;;
4812;SDS011;2420;51.202;8.698;2023-03-04T00:23:06;21.08;;;11.10;;
4812;SDS011;2420;51.202;8.698;2023-03-04T00:25:31;19.83;;;10.60;;
4812;SDS011;2420;51.202;8.698;2023-03-04T00:27:57;20.35;;;10.95;;
4812;SDS011;2420;51.202;8.698;2023-03-04T00:30:23;23.15;;;11.43;;
4812;SDS011;2420;51.202;8.698;2023-03-04T00:32:49;20.98;;;11.85;;
4812;SDS011;2420;51.202;8.698;2023-03-04T00:35:14;21.15;;;10.65;;
4812;SDS011;2420;51.202;8.698;2023-03-04T00:37:40;21.55;;;11.43;;
4812;SDS011;2420;51.202;8.698;2023-03-04T00:40:06;23.52;;;12.15;;
4812;SDS011;2420;51.202;8.698;2023-03-04T00:42:32;19.88;;;10.82;;
4812;SDS011;2420;51.202;8.698;2023-03-04T00:44:58;20.80;;;11.60;;
4812;SDS011;2420;51.202;8.698;2023-03-04T00:47:23;17.65;;;10.75;;
4812;SDS011;2420;51.202;8.698;2023-03-04T00:49:49;24.80;;;12.90;;
4812;SDS011;2420;51.202;8.698;2023-03-04T00:52:14;22.80;;;11.18;;
4812;SDS011;2420;51.202;8.698;2023-03-04T00:54:40;22.17;;;11.40;;
4812;SDS011;2420;51.202;8.698;2023-03-04T00:57:05;20.73;;;12.15;;
4812;SDS011;2420;51.202;8.698;2023-03-04T00:59:31;22.60;;;11.77;;
4812;SDS011;2420;51.202;8.698;2023-03-04T01:01:56;22.65;;;12.63;;
4812;SDS011;2420;51.202;8.698;2023-03-04T01:04:22;23.83;;;12.82;;
4812;SDS011;2420;51.202;8.698;2023-03-04T01:06:48;25.05;;;12.75;;
4812;SDS011;2420;51.202;8.698;2023-03-04T01:09:13;23.48;;;13.13;;
4812;SDS011;2420;51.202;8.698;2023-03-04T01:11:39;22.23;;;11.63;;
4812;SDS011;2420;51.202;8.698;2023-03-04T01:14:04;22.48;;;11.63;;
4812;SDS011;2420;51.202;8.698;2023-03-04T01:16:30;23.95;;;11.80;;
4812;SDS011;2420;51.202;8.698;2023-03-04T01:18:55;19.63;;;11.88;;
4812;SDS011;2420;51.202;8.698;2023-03-04T01:21:21;19.98;;;11.70;;
4812;SDS011;2420;51.202;8.698;2023-03-04T01:23:47;20.50;;;11.35;;
4812;SDS011;2420;51.202;8.698;2023-03-04T01:26:12;20.15;;;11.38;;
4812;SDS011;2420;51.202;8.698;2023-03-04T01:28:38;22.02;;;11.32;;
4812;SDS011;2420;51.202;8.698;2023-03-04T01:31:04;21.90;;;12.15;;
4812;SDS011;2420;51.202;8.698;2023-03-04T01:33:30;20.50;;;11.68;;
4812;SDS011;2420;51.202;8.698;2023-03-04T01:35:56;19.55;;;11.52;;
4812;SDS011;2420;51.202;8.698;2023-03-04T01:38:22;22.35;;;11.18;;
4812;SDS011;2420;51.202;8.698;2023-03-04T01:40:48;15.40;;;10.20;;
4812;SDS011;2420;51.202;8.698;2023-03-04T01:43:18;21.17;;;11.30;;
4812;SDS011;2420;51.202;8.698;2023-03-04T01:45:48;20.52;;;10.55;;
4812;SDS011;2420;51.202;8.698;2023-03-04T01:48:15;23.85;;;10.90;;
4812;SDS011;2420;51.202;8.698;2023-03-04T01:50:45;20.40;;;9.93;;
4812;SDS011;2420;51.202;8.698;2023-03-04T01:53:18;21.27;;;10.30;;
4812;SDS011;2420;51.202;8.698;2023-03-04T01:55:47;22.08;;;10.80;;
4812;SDS011;2420;51.202;8.698;2023-03-04T01:58:13;25.67;;;11.18;;
4812;SDS011;2420;51.202;8.698;2023-03-04T02:00:38;20.40;;;10.05;;
4812;SDS011;2420;51.202;8.698;2023-03-04T02:03:05;15.98;;;8.93;;
4812;SDS011;2420;51.202;8.698;2023-03-04T02:05:33;18.70;;;9.48;;
4812;SDS011;2420;51.202;8.698;2023-03-04T02:08:01;21.60;;;10.68;;
4812;SDS011;2420;51.202;8.698;2023-03-04T02:10:28;17.23;;;9.70;;
4812;SDS011;2420;51.202;8.698;2023-03-04T02:12:54;20.70;;;11.25;;
4812;SDS011;2420;51.202;8.698;2023-03-04T02:15:21;21.05;;;10.23;;
4812;SDS011;2420;51.202;8.698;2023-03-04T02:17:47;18.17;;;10.35;;
4812;SDS011;2420;51.202;8.698;2023-03-04T02:20:19;18.67;;;10.40;;
4812;SDS011;2420;51.202;8.698;2023-03-04T02:23:22;16.98;;;7.63;;
4812;SDS011;2420;51.202;8.698;2023-03-04T02:25:43;17.48;;;8.05;;
4812;SDS011;2420;51.202;8.698;2023-03-04T02:28:13;16.58;;;8.27;;
4812;SDS011;2420;51.202;8.698;2023-03-04T02:30:38;26.27;;;9.50;;
4812;SDS011;2420;51.202;8.698;2023-03-04T02:33:04;15.77;;;8.80;;
4812;SDS011;2420;51.202;8.698;2023-03-04T02:35:30;18.05;;;8.68;;
4812;SDS011;2420;51.202;8.698;2023-03-04T02:37:56;19.98;;;9.00;;
4812;SDS011;2420;51.202;8.698;2023-03-04T02:40:23;16.33;;;9.43;;
4812;SDS011;2420;51.202;8.698;2023-03-04T02:42:53;17.85;;;9.50;;
4812;SDS011;2420;51.202;8.698;2023-03-04T02:48:13;17.75;;;9.70;;
4812;SDS011;2420;51.202;8.698;2023-03-04T02:50:44;23.15;;;9.32;;
4812;SDS011;2420;51.202;8.698;2023-03-04T02:53:12;17.77;;;7.60;;
4812;SDS011;2420;51.202;8.698;2023-03-04T02:55:39;18.13;;;7.88;;
4812;SDS011;2420;51.202;8.698;2023-03-04T02:58:06;23.77;;;7.05;;
4812;SDS011;2420;51.202;8.698;2023-03-04T03:00:32;17.08;;;7.18;;
4812;SDS011;2420;51.202;8.698;2023-03-04T03:02:57;17.08;;;7.22;;
4812;SDS011;2420;51.202;8.698;2023-03-04T03:05:24;21.67;;;7.75;;
4812;SDS011;2420;51.202;8.698;2023-03-04T03:07:51;18.42;;;7.43;;
4812;SDS011;2420;51.202;8.698;2023-03-04T03:10:17;15.30;;;6.55;;
4812;SDS011;2420;51.202;8.698;2023-03-04T03:12:43;19.90;;;7.32;;
4812;SDS011;2420;51.202;8.698;2023-03-04T03:15:08;16.88;;;6.50;;
4812;SDS011;2420;51.202;8.698;2023-03-04T03:17:34;22.13;;;7.07;;
4812;SDS011;2420;51.202;8.698;2023-03-04T03:20:00;19.20;;;6.38;;
4812;SDS011;2420;51.202;8.698;2023-03-04T03:22:26;20.55;;;7.25;;
4812;SDS011;2420;51.202;8.698;2023-03-04T03:24:51;21.50;;;7.20;;
4812;SDS011;2420;51.202;8.698;2023-03-04T03:27:16;15.50;;;6.25;;
4812;SDS011;2420;51.202;8.698;2023-03-04T03:29:42;15.43;;;6.43;;
4812;SDS011;2420;51.202;8.698;2023-03-04T03:32:08;19.35;;;6.38;;
4812;SDS011;2420;51.202;8.698;2023-03-04T03:34:33;19.83;;;6.68;;
4812;SDS011;2420;51.202;8.698;2023-03-04T03:36:59;12.65;;;6.20;;
4812;SDS011;2420;51.202;8.698;2023-03-04T03:39:24;20.15;;;6.15;;
4812;SDS011;2420;51.202;8.698;2023-03-04T03:41:50;24.17;;;6.28;;
4812;SDS011;2420;51.202;8.698;2023-03-04T03:44:15;17.30;;;5.78;;
4812;SDS011;2420;51.202;8.698;2023-03-04T03:46:41;16.70;;;6.55;;
4812;SDS011;2420;51.202;8.698;2023-03-04T03:49:06;14.52;;;6.75;;
4812;SDS011;2420;51.202;8.698;2023-03-04T03:51:32;20.35;;;6.53;;
4812;SDS011;2420;51.202;8.698;2023-03-04T03:53:57;18.33;;;6.72;;
4812;SDS011;2420;51.202;8.698;2023-03-04T03:56:23;13.85;;;6.78;;
4812;SDS011;2420;51.202;8.698;2023-03-04T03:58:48;20.55;;;6.15;;
4812;SDS011;2420;51.202;8.698;2023-03-04T04:01:14;16.95;;;5.68;;
4812;SDS011;2420;51.202;8.698;2023-03-04T04:03:39;18.45;;;6.55;;
4812;SDS011;2420;51.202;8.698;2023-03-04T04:06:05;15.98;;;6.10;;
4812;SDS011;2420;51.202;8.698;2023-03-04T04:08:31;20.17;;;6.97;;
4812;SDS011;2420;51.202;8.698;2023-03-04T04:10:57;19.35;;;6.43;;
4812;SDS011;2420;51.202;8.698;2023-03-04T04:13:23;25.52;;;6.97;;
4812;SDS011;2420;51.202;8.698;2023-03-04T04:15:50;15.85;;;6.03;;
4812;SDS011;2420;51.202;8.698;2023-03-04T04:18:16;19.08;;;6.55;;
4812;SDS011;2420;51.202;8.698;2023-03-04T04:20:42;14.73;;;5.90;;
4812;SDS011;2420;51.202;8.698;2023-03-04T04:23:07;21.60;;;6.82;;
4812;SDS011;2420;51.202;8.698;2023-03-04T04:25:33;21.30;;;6.80;;
4812;SDS011;2420;51.202;8.698;2023-03-04T04:27:58;17.92;;;7.05;;
4812;SDS011;2420;51.202;8.698;2023-03-04T04:30:24;23.38;;;7.03;;
4812;SDS011;2420;51.202;8.698;2023-03-04T04:32:49;18.35;;;7.13;;
4812;SDS011;2420;51.202;8.698;2023-03-04T04:35:15;17.00;;;6.82;;
4812;SDS011;2420;51.202;8.698;2023-03-04T04:37:41;20.35;;;6.90;;
4812;SDS011;2420;51.202;8.698;2023-03-04T04:40:06;17.13;;;6.65;;
4812;SDS011;2420;51.202;8.698;2023-03-04T04:42:32;19.02;;;6.97;;
4812;SDS011;2420;51.202;8.698;2023-03-04T04:44:58;19.65;;;6.60;;
4812;SDS011;2420;51.202;8.698;2023-03-04T04:47:24;18.48;;;7.07;;
4812;SDS011;2420;51.202;8.698;2023-03-04T04:49:49;23.13;;;7.50;;
4812;SDS011;2420;51.202;8.698;2023-03-04T04:52:15;19.17;;;7.30;;
4812;SDS011;2420;51.202;8.698;2023-03-04T04:54:41;18.63;;;7.28;;
4812;SDS011;2420;51.202;8.698;2023-03-04T04:57:06;18.42;;;7.28;;
4812;SDS011;2420;51.202;8.698;2023-03-04T04:59:32;20.52;;;7.03;;
4812;SDS011;2420;51.202;8.698;2023-03-04T05:01:57;22.30;;;7.40;;
4812;SDS011;2420;51.202;8.698;2023-03-04T05:04:23;21.85;;;6.93;;
4812;SDS011;2420;51.202;8.698;2023-03-04T05:06:49;19.42;;;7.20;;
4812;SDS011;2420;51.202;8.698;2023-03-04T05:09:14;19.20;;;6.80;;
4812;SDS011;2420;51.202;8.698;2023-03-04T05:11:40;19.35;;;7.43;;
4812;SDS011;2420;51.202;8.698;2023-03-04T05:14:05;17.58;;;6.80;;
4812;SDS011;2420;51.202;8.698;2023-03-04T05:16:31;17.17;;;7.22;;
4812;SDS011;2420;51.202;8.698;2023-03-04T05:18:57;15.35;;;6.15;;
4812;SDS011;2420;51.202;8.698;2023-03-04T05:21:22;24.23;;;7.50;;
4812;SDS011;2420;51.202;8.698;2023-03-04T05:23:48;17.42;;;6.50;;
4812;SDS011;2420;51.202;8.698;2023-03-04T05:26:14;20.00;;;7.25;;
4812;SDS011;2420;51.202;8.698;2023-03-04T05:28:41;16.25;;;7.15;;
4812;SDS011;2420;51.202;8.698;2023-03-04T05:31:06;16.35;;;6.72;;
4812;SDS011;2420;51.202;8.698;2023-03-04T05:33:32;11.93;;;5.80;;
4812;SDS011;2420;51.202;8.698;2023-03-04T05:35:58;16.27;;;5.95;;
4812;SDS011;2420;51.202;8.698;2023-03-04T05:38:24;17.67;;;6.65;;
4812;SDS011;2420;51.202;8.698;2023-03-04T05:40:54;13.65;;;6.10;;
4812;SDS011;2420;51.202;8.698;2023-03-04T05:43:24;15.45;;;5.65;;
4812;SDS011;2420;51.202;8.698;2023-03-04T05:45:51;16.90;;;5.68;;
4812;SDS011;2420;51.202;8.698;2023-03-04T05:48:18;19.60;;;5.40;;
4812;SDS011;2420;51.202;8.698;2023-03-04T05:50:44;13.85;;;5.20;;
4812;SDS011;2420;51.202;8.698;2023-03-04T05:53:10;13.35;;;5.25;;
4812;SDS011;2420;51.202;8.698;2023-03-04T05:55:36;15.50;;;5.07;;
4812;SDS011;2420;51.202;8.698;2023-03-04T05:58:01;16.85;;;5.30;;
4812;SDS011;2420;51.202;8.698;2023-03-04T06:00:27;13.05;;;4.93;;
4812;SDS011;2420;51.202;8.698;2023-03-04T06:02:52;18.13;;;5.40;;
4812;SDS011;2420;51.202;8.698;2023-03-04T06:05:18;16.88;;;4.90;;
4812;SDS011;2420;51.202;8.698;2023-03-04T06:07:44;12.80;;;4.65;;
4812;SDS011;2420;51.202;8.698;2023-03-04T06:10:14;10.90;;;4.00;;
4812;SDS011;2420;51.202;8.698;2023-03-04T06:12:41;14.20;;;4.72;;
4812;SDS011;2420;51.202;8.698;2023-03-04T06:15:07;16.10;;;4.90;;
4812;SDS011;2420;51.202;8.698;2023-03-04T06:17:34;10.10;;;4.45;;
4812;SDS011;2420;51.202;8.698;2023-03-04T06:20:00;12.02;;;4.32;;
4812;SDS011;2420;51.202;8.698;2023-03-04T06:22:26;9.23;;;3.80;;
4812;SDS011;2420;51.202;8.698;2023-03-04T06:24:51;12.88;;;4.13;;
4812;SDS011;2420;51.202;8.698;2023-03-04T06:27:24;12.07;;;4.35;;
4812;SDS011;2420;51.202;8.698;2023-03-04T06:29:50;10.82;;;4.82;;
4812;SDS011;2420;51.202;8.698;2023-03-04T06:32:16;11.65;;;4.45;;
4812;SDS011;2420;51.202;8.698;2023-03-04T06:34:42;14.15;;;4.40;;
4812;SDS011;2420;51.202;8.698;2023-03-04T06:37:07;11.50;;;3.92;;
4812;SDS011;2420;51.202;8.698;2023-03-04T06:39:33;11.73;;;3.97;;
4812;SDS011;2420;51.202;8.698;2023-03-04T06:41:58;13.90;;;3.85;;
4812;SDS011;2420;51.202;8.698;2023-03-04T06:44:24;12.93;;;3.70;;
4812;SDS011;2420;51.202;8.698;2023-03-04T06:46:49;11.43;;;3.53;;
4812;SDS011;2420;51.202;8.698;2023-03-04T06:49:15;9.70;;;4.05;;
4812;SDS011;2420;51.202;8.698;2023-03-04T06:51:40;12.80;;;4.20;;
4812;SDS011;2420;51.202;8.698;2023-03-04T06:54:06;12.75;;;3.67;;
4812;SDS011;2420;51.202;8.698;2023-03-04T06:56:31;10.55;;;3.80;;
4812;SDS011;2420;51.202;8.698;2023-03-04T06:58:57;11.43;;;3.42;;
4812;SDS011;2420;51.202;8.698;2023-03-04T07:01:24;8.65;;;3.40;;
4812;SDS011;2420;51.202;8.698;2023-03-04T07:03:51;8.18;;;3.22;;
4812;SDS011;2420;51.202;8.698;2023-03-04T07:06:18;15.85;;;3.80;;
4812;SDS011;2420;51.202;8.698;2023-03-04T07:08:46;7.05;;;3.17;;
4812;SDS011;2420;51.202;8.698;2023-03-04T07:11:12;11.15;;;3.38;;
4812;SDS011;2420;51.202;8.698;2023-03-04T07:13:38;6.25;;;2.78;;
4812;SDS011;2420;51.202;8.698;2023-03-04T07:16:05;7.43;;;3.03;;
4812;SDS011;2420;51.202;8.698;2023-03-04T07:18:31;6.35;;;2.78;;
4812;SDS011;2420;51.202;8.698;2023-03-04T07:20:57;9.02;;;2.95;;
4812;SDS011;2420;51.202;8.698;2023-03-04T07:23:22;8.35;;;3.00;;
4812;SDS011;2420;51.202;8.698;2023-03-04T07:25:48;10.27;;;3.08;;
4812;SDS011;2420;51.202;8.698;2023-03-04T07:28:15;5.65;;;3.05;;
4812;SDS011;2420;51.202;8.698;2023-03-04T07:30:41;7.63;;;3.13;;
4812;SDS011;2420;51.202;8.698;2023-03-04T07:33:06;6.88;;;3.28;;
4812;SDS011;2420;51.202;8.698;2023-03-04T07:35:32;6.22;;;2.33;;
4812;SDS011;2420;51.202;8.698;2023-03-04T07:37:58;12.32;;;2.60;;
4812;SDS011;2420;51.202;8.698;2023-03-04T07:40:23;6.40;;;3.53;;
4812;SDS011;2420;51.202;8.698;2023-03-04T07:42:49;5.13;;;2.53;;
4812;SDS011;2420;51.202;8.698;2023-03-04T07:45:16;7.47;;;3.50;;
4812;SDS011;2420;51.202;8.698;2023-03-04T07:47:41;7.20;;;2.88;;
4812;SDS011;2420;51.202;8.698;2023-03-04T07:50:07;6.93;;;2.20;;
4812;SDS011;2420;51.202;8.698;2023-03-04T07:52:36;6.95;;;2.45;;
4812;SDS011;2420;51.202;8.698;2023-03-04T07:55:05;5.57;;;2.30;;
4812;SDS011;2420;51.202;8.698;2023-03-04T07:57:31;6.32;;;2.30;;
4812;SDS011;2420;51.202;8.698;2023-03-04T07:59:57;6.43;;;2.47;;
4812;SDS011;2420;51.202;8.698;2023-03-04T08:02:22;7.97;;;2.33;;
4812;SDS011;2420;51.202;8.698;2023-03-04T08:04:48;5.55;;;2.40;;
4812;SDS011;2420;51.202;8.698;2023-03-04T08:07:13;6.75;;;2.15;;
4812;SDS011;2420;51.202;8.698;2023-03-04T08:09:39;5.20;;;1.98;;
4812;SDS011;2420;51.202;8.698;2023-03-04T08:12:05;7.75;;;2.42;;
4812;SDS011;2420;51.202;8.698;2023-03-04T08:14:30;5.10;;;2.20;;
4812;SDS011;2420;51.202;8.698;2023-03-04T08:16:56;5.55;;;2.03;;
4812;SDS011;2420;51.202;8.698;2023-03-04T08:19:21;3.97;;;2.30;;
4812;SDS011;2420;51.202;8.698;2023-03-04T08:21:47;4.65;;;2.05;;
4812;SDS011;2420;51.202;8.698;2023-03-04T08:24:12;4.88;;;2.10;;
4812;SDS011;2420;51.202;8.698;2023-03-04T08:26:43;4.85;;;2.45;;
4812;SDS011;2420;51.202;8.698;2023-03-04T08:29:11;6.20;;;2.30;;
4812;SDS011;2420;51.202;8.698;2023-03-04T08:31:47;5.50;;;1.92;;
4812;SDS011;2420;51.202;8.698;2023-03-04T08:34:13;3.10;;;1.80;;
4812;SDS011;2420;51.202;8.698;2023-03-04T08:36:40;4.28;;;2.25;;
4812;SDS011;2420;51.202;8.698;2023-03-04T08:39:06;3.15;;;2.15;;
4812;SDS011;2420;51.202;8.698;2023-03-04T08:41:33;3.63;;;1.70;;
4812;SDS011;2420;51.202;8.698;2023-03-04T08:43:59;3.65;;;2.28;;
4812;SDS011;2420;51.202;8.698;2023-03-04T08:46:25;3.45;;;2.10;;
4812;SDS011;2420;51.202;8.698;2023-03-04T08:48:51;4.55;;;1.98;;
4812;SDS011;2420;51.202;8.698;2023-03-04T08:51:17;6.57;;;2.40;;
4812;SDS011;2420;51.202;8.698;2023-03-04T08:53:43;6.32;;;2.20;;
4812;SDS011;2420;51.202;8.698;2023-03-04T08:56:09;4.97;;;2.00;;
4812;SDS011;2420;51.202;8.698;2023-03-04T08:58:35;4.95;;;2.10;;
4812;SDS011;2420;51.202;8.698;2023-03-04T09:01:02;4.32;;;1.75;;
4812;SDS011;2420;51.202;8.698;2023-03-04T09:03:28;3.67;;;2.05;;
4812;SDS011;2420;51.202;8.698;2023-03-04T09:05:56;5.28;;;1.90;;
4812;SDS011;2420;51.202;8.698;2023-03-04T09:08:21;2.95;;;1.35;;
4812;SDS011;2420;51.202;8.698;2023-03-04T09:10:50;3.92;;;1.90;;
4812;SDS011;2420;51.202;8.698;2023-03-04T09:13:16;5.13;;;1.77;;
4812;SDS011;2420;51.202;8.698;2023-03-04T09:15:43;3.30;;;1.55;;
4812;SDS011;2420;51.202;8.698;2023-03-04T09:18:12;2.88;;;1.65;;
4812;SDS011;2420;51.202;8.698;2023-03-04T09:20:39;5.30;;;1.98;;
4812;SDS011;2420;51.202;8.698;2023-03-04T09:23:05;3.38;;;2.00;;
4812;SDS011;2420;51.202;8.698;2023-03-04T09:25:31;3.55;;;2.03;;
4812;SDS011;2420;51.202;8.698;2023-03-04T09:27:56;2.50;;;1.50;;
4812;SDS011;2420;51.202;8.698;2023-03-04T09:30:22;2.90;;;1.70;;
4812;SDS011;2420;51.202;8.698;2023-03-04T09:32:48;2.80;;;1.40;;
4812;SDS011;2420;51.202;8.698;2023-03-04T09:35:13;3.17;;;1.60;;
4812;SDS011;2420;51.202;8.698;2023-03-04T09:37:39;5.60;;;1.80;;
4812;SDS011;2420;51.202;8.698;2023-03-04T09:40:05;3.70;;;1.70;;
4812;SDS011;2420;51.202;8.698;2023-03-04T09:44:59;4.60;;;2.00;;
4812;SDS011;2420;51.202;8.698;2023-03-04T09:47:27;25.00;;;7.22;;
4812;SDS011;2420;51.202;8.698;2023-03-04T09:49:59;7.78;;;3.20;;
4812;SDS011;2420;51.202;8.698;2023-03-04T09:52:32;4.82;;;2.00;;
4812;SDS011;2420;51.202;8.698;2023-03-04T09:55:27;4.13;;;1.73;;
4812;SDS011;2420;51.202;8.698;2023-03-04T10:00:57;3.20;;;1.70;;
4812;SDS011;2420;51.202;8.698;2023-03-04T10:03:45;3.03;;;1.80;;
4812;SDS011;2420;51.202;8.698;2023-03-04T10:06:16;3.53;;;2.03;;
4812;SDS011;2420;51.202;8.698;2023-03-04T10:11:17;2.80;;;1.40;;
4812;SDS011;2420;51.202;8.698;2023-03-04T10:14:00;4.45;;;1.50;;
4812;SDS011;2420;51.202;8.698;2023-03-04T10:19:56;4.00;;;1.25;;
4812;SDS011;2420;51.202;8.698;2023-03-04T10:22:34;1.30;;;1.20;;
4812;SDS011;2420;51.202;8.698;2023-03-04T10:28:01;3.15;;;1.63;;
4812;SDS011;2420;51.202;8.698;2023-03-04T10:33:14;2.53;;;1.60;;
4812;SDS011;2420;51.202;8.698;2023-03-04T10:35:50;2.75;;;1.23;;
4812;SDS011;2420;51.202;8.698;2023-03-04T10:38:33;2.38;;;1.52;;
4812;SDS011;2420;51.202;8.698;2023-03-04T10:41:01;2.47;;;1.60;;
4812;SDS011;2420;51.202;8.698;2023-03-04T10:43:39;1.85;;;1.40;;
4812;SDS011;2420;51.202;8.698;2023-03-04T10:46:09;3.95;;;2.10;;
4812;SDS011;2420;51.202;8.698;2023-03-04T10:48:36;5.47;;;3.13;;
4812;SDS011;2420;51.202;8.698;2023-03-04T10:51:17;5.05;;;2.63;;
4812;SDS011;2420;51.202;8.698;2023-03-04T10:53:49;1.35;;;1.23;;
4812;SDS011;2420;51.202;8.698;2023-03-04T10:56:33;4.50;;;1.50;;
4812;SDS011;2420;51.202;8.698;2023-03-04T11:01:58;2.40;;;1.27;;
4812;SDS011;2420;51.202;8.698;2023-03-04T11:04:26;3.08;;;1.27;;
4812;SDS011;2420;51.202;8.698;2023-03-04T11:06:56;1.58;;;1.30;;
4812;SDS011;2420;51.202;8.698;2023-03-04T11:09:26;2.17;;;1.60;;
4812;SDS011;2420;51.202;8.698;2023-03-04T11:11:54;2.88;;;1.42;;
4812;SDS011;2420;51.202;8.698;2023-03-04T11:14:25;3.47;;;1.50;;
4812;SDS011;2420;51.202;8.698;2023-03-04T11:17:14;2.22;;;1.40;;
4812;SDS011;2420;51.202;8.698;2023-03-04T11:22:44;2.08;;;1.40;;
4812;SDS011;2420;51.202;8.698;2023-03-04T11:25:20;2.78;;;1.77;;
4812;SDS011;2420;51.202;8.698;2023-03-04T11:27:57;3.13;;;1.48;;
4812;SDS011;2420;51.202;8.698;2023-03-04T11:30:42;2.53;;;1.77;;
4812;SDS011;2420;51.202;8.698;2023-03-04T11:33:13;3.72;;;2.40;;
4812;SDS011;2420;51.202;8.698;2023-03-04T11:38:21;2.33;;;1.75;;
4812;SDS011;2420;51.202;8.698;2023-03-04T11:40:53;3.22;;;2.28;;
4812;SDS011;2420;51.202;8.698;2023-03-04T11:43:29;2.47;;;1.60;;
4812;SDS011;2420;51.202;8.698;2023-03-04T11:51:49;4.03;;;1.75;;
4812;SDS011;2420;51.202;8.698;2023-03-04T12:00:09;2.03;;;1.55;;
4812;SDS011;2420;51.202;8.698;2023-03-04T12:08:50;3.58;;;1.88;;
4812;SDS011;2420;51.202;8.698;2023-03-04T12:25:23;2.58;;;1.73;;
4812;SDS011;2420;51.202;8.698;2023-03-04T12:41:26;2.97;;;2.20;;
4812;SDS011;2420;51.202;8.698;2023-03-04T12:55:09;3.47;;;1.80;;
4812;SDS011;2420;51.202;8.698;2023-03-04T12:57:39;2.53;;;1.90;;
4812;SDS011;2420;51.202;8.698;2023-03-04T13:03:02;2.85;;;2.20;;
4812;SDS011;2420;51.202;8.698;2023-03-04T13:05:38;3.10;;;2.20;;
4812;SDS011;2420;51.202;8.698;2023-03-04T13:08:48;3.13;;;2.30;;
4812;SDS011;2420;51.202;8.698;2023-03-04T13:14:06;3.58;;;2.75;;
4812;SDS011;2420;51.202;8.698;2023-03-04T13:16:48;2.75;;;1.55;;
4812;SDS011;2420;51.202;8.698;2023-03-04T13:22:51;2.63;;;1.90;;
4812;SDS011;2420;51.202;8.698;2023-03-04T13:43:50;2.55;;;1.90;;
4812;SDS011;2420;51.202;8.698;2023-03-04T13:48:44;2.65;;;1.95;;
4812;SDS011;2420;51.202;8.698;2023-03-04T13:56:33;3.95;;;2.20;;
4812;SDS011;2420;51.202;8.698;2023-03-04T14:02:21;3.10;;;2.40;;
4812;SDS011;2420;51.202;8.698;2023-03-04T14:12:29;3.08;;;2.20;;
4812;SDS011;2420;51.202;8.698;2023-03-04T14:14:58;8.38;;;2.80;;
4812;SDS011;2420;51.202;8.698;2023-03-04T14:17:28;3.85;;;2.70;;
4812;SDS011;2420;51.202;8.698;2023-03-04T14:19:55;3.15;;;2.22;;
4812;SDS011;2420;51.202;8.698;2023-03-04T14:24:59;3.95;;;2.70;;
4812;SDS011;2420;51.202;8.698;2023-03-04T14:27:28;3.60;;;2.75;;
4812;SDS011;2420;51.202;8.698;2023-03-04T14:30:00;5.95;;;3.50;;
4812;SDS011;2420;51.202;8.698;2023-03-04T14:32:29;8.20;;;4.63;;
4812;SDS011;2420;51.202;8.698;2023-03-04T14:35:07;7.35;;;3.70;;
4812;SDS011;2420;51.202;8.698;2023-03-04T14:37:48;4.10;;;3.10;;
4812;SDS011;2420;51.202;8.698;2023-03-04T14:40:29;5.57;;;2.90;;
4812;SDS011;2420;51.202;8.698;2023-03-04T14:43:21;5.05;;;3.10;;
4812;SDS011;2420;51.202;8.698;2023-03-04T14:45:50;4.88;;;3.30;;
4812;SDS011;2420;51.202;8.698;2023-03-04T14:48:30;3.60;;;2.65;;
4812;SDS011;2420;51.202;8.698;2023-03-04T14:50:57;9.85;;;5.72;;
4812;SDS011;2420;51.202;8.698;2023-03-04T14:53:25;8.15;;;5.30;;
4812;SDS011;2420;51.202;8.698;2023-03-04T14:55:56;3.00;;;2.53;;
4812;SDS011;2420;51.202;8.698;2023-03-04T14:58:23;3.42;;;2.45;;
4812;SDS011;2420;51.202;8.698;2023-03-04T15:01:01;4.55;;;2.45;;
4812;SDS011;2420;51.202;8.698;2023-03-04T15:03:29;2.92;;;2.17;;
4812;SDS011;2420;51.202;8.698;2023-03-04T15:06:06;2.80;;;2.30;;
4812;SDS011;2420;51.202;8.698;2023-03-04T15:08:45;3.88;;;2.33;;
4812;SDS011;2420;51.202;8.698;2023-03-04T15:11:22;2.50;;;2.10;;
4812;SDS011;2420;51.202;8.698;2023-03-04T15:22:34;13.88;;;7.07;;
4812;SDS011;2420;51.202;8.698;2023-03-04T15:25:20;3.88;;;2.42;;
4812;SDS011;2420;51.202;8.698;2023-03-04T15:27:47;4.88;;;2.00;;
4812;SDS011;2420;51.202;8.698;2023-03-04T15:30:20;4.97;;;2.67;;
4812;SDS011;2420;51.202;8.698;2023-03-04T15:32:48;4.90;;;1.90;;
4812;SDS011;2420;51.202;8.698;2023-03-04T15:35:15;3.35;;;2.00;;
4812;SDS011;2420;51.202;8.698;2023-03-04T15:37:41;4.50;;;2.13;;
4812;SDS011;2420;51.202;8.698;2023-03-04T15:42:51;2.70;;;1.80;;
4812;SDS011;2420;51.202;8.698;2023-03-04T15:45:22;3.22;;;2.15;;
4812;SDS011;2420;51.202;8.698;2023-03-04T15:47:50;8.98;;;4.75;;
4812;SDS011;2420;51.202;8.698;2023-03-04T15:50:16;8.68;;;3.83;;
4812;SDS011;2420;51.202;8.698;2023-03-04T15:52:42;18.13;;;6.13;;
4812;SDS011;2420;51.202;8.698;2023-03-04T15:55:19;3.63;;;2.08;;
4812;SDS011;2420;51.202;8.698;2023-03-04T15:57:47;4.85;;;3.05;;
4812;SDS011;2420;51.202;8.698;2023-03-04T16:00:17;3.92;;;2.80;;
4812;SDS011;2420;51.202;8.698;2023-03-04T16:02:42;5.72;;;2.83;;
4812;SDS011;2420;51.202;8.698;2023-03-04T16:05:08;6.20;;;3.10;;
4812;SDS011;2420;51.202;8.698;2023-03-04T16:07:34;5.00;;;2.50;;
4812;SDS011;2420;51.202;8.698;2023-03-04T16:10:04;9.50;;;3.85;;
4812;SDS011;2420;51.202;8.698;2023-03-04T16:12:54;5.35;;;2.70;;
4812;SDS011;2420;51.202;8.698;2023-03-04T16:15:21;5.72;;;3.08;;
4812;SDS011;2420;51.202;8.698;2023-03-04T16:17:52;6.43;;;2.75;;
4812;SDS011;2420;51.202;8.698;2023-03-04T16:20:20;3.25;;;2.30;;
4812;SDS011;2420;51.202;8.698;2023-03-04T16:22:48;8.10;;;3.10;;
4812;SDS011;2420;51.202;8.698;2023-03-04T16:25:18;7.20;;;2.80;;
4812;SDS011;2420;51.202;8.698;2023-03-04T16:27:44;4.35;;;2.47;;
4812;SDS011;2420;51.202;8.698;2023-03-04T16:30:12;4.97;;;2.65;;
4812;SDS011;2420;51.202;8.698;2023-03-04T16:32:43;4.93;;;2.80;;
4812;SDS011;2420;51.202;8.698;2023-03-04T16:35:09;8.18;;;2.90;;
4812;SDS011;2420;51.202;8.698;2023-03-04T16:37:36;5.40;;;2.50;;
4812;SDS011;2420;51.202;8.698;2023-03-04T16:40:02;5.57;;;2.80;;
4812;SDS011;2420;51.202;8.698;2023-03-04T16:42:28;7.38;;;2.80;;
4812;SDS011;2420;51.202;8.698;2023-03-04T16:44:54;8.32;;;3.33;;
4812;SDS011;2420;51.202;8.698;2023-03-04T16:47:20;12.95;;;5.18;;
4812;SDS011;2420;51.202;8.698;2023-03-04T16:49:46;11.25;;;5.05;;
4812;SDS011;2420;51.202;8.698;2023-03-04T16:52:26;12.35;;;5.55;;
4812;SDS011;2420;51.202;8.698;2023-03-04T16:54:56;9.98;;;4.80;;
4812;SDS011;2420;51.202;8.698;2023-03-04T16:57:22;21.27;;;8.38;;
4812;SDS011;2420;51.202;8.698;2023-03-04T16:59:48;10.27;;;4.38;;
4812;SDS011;2420;51.202;8.698;2023-03-04T17:02:15;13.90;;;6.00;;
4812;SDS011;2420;51.202;8.698;2023-03-04T17:04:42;7.50;;;3.50;;
4812;SDS011;2420;51.202;8.698;2023-03-04T17:07:08;8.48;;;2.60;;
4812;SDS011;2420;51.202;8.698;2023-03-04T17:09:33;9.80;;;3.95;;
4812;SDS011;2420;51.202;8.698;2023-03-04T17:12:01;15.13;;;6.25;;
4812;SDS011;2420;51.202;8.698;2023-03-04T17:14:31;33.97;;;13.05;;
4812;SDS011;2420;51.202;8.698;2023-03-04T17:16:57;13.55;;;6.20;;
4812;SDS011;2420;51.202;8.698;2023-03-04T17:19:22;30.83;;;11.90;;
4812;SDS011;2420;51.202;8.698;2023-03-04T17:21:48;22.08;;;8.82;;
4812;SDS011;2420;51.202;8.698;2023-03-04T17:24:14;22.58;;;9.05;;
4812;SDS011;2420;51.202;8.698;2023-03-04T17:26:39;14.85;;;6.43;;
4812;SDS011;2420;51.202;8.698;2023-03-04T17:29:06;12.20;;;3.70;;
4812;SDS011;2420;51.202;8.698;2023-03-04T17:31:33;13.35;;;6.57;;
4812;SDS011;2420;51.202;8.698;2023-03-04T17:34:00;16.27;;;7.30;;
4812;SDS011;2420;51.202;8.698;2023-03-04T17:36:26;11.35;;;3.97;;